This is the latest recevied weather packets stored in our database for station/object IV3CGM-13. If no packets are shown the sender has not sent any weather packets the latest 1 day(s).
| Time | Temp. | Humidity | Pressure | Rain* | Wind** | Luminosity | Snow |
|---|---|---|---|---|---|---|---|
| 1777979727 | 13.89° C | 90% | 1014.5 hPa | 0.51 mm | 0 m/s | 71 W/m² | - |
| 1777978990 | 14.44° C | 90% | 1014.5 hPa | 0.51 mm | 0.89 m/s, 303° | 66 W/m² | - |
| 1777978289 | 14.44° C | 88% | 1014.5 hPa | 0.51 mm | 0.89 m/s, 303° | 125 W/m² | - |
| 1777977602 | 13.89° C | 89% | 1014.6 hPa | 0.51 mm | 0.89 m/s, 306° | 214 W/m² | - |
| 1777976914 | 13.89° C | 89% | 1014.7 hPa | 0.51 mm | 0.89 m/s, 6° | 148 W/m² | - |
| 1777976227 | 13.33° C | 93% | 1014.9 hPa | 0.51 mm | 0.89 m/s, 12° | 140 W/m² | - |
| 1777975490 | 13.33° C | 91% | 1015 hPa | 0 mm | 0.89 m/s, 12° | 75 W/m² | - |
| 1777974790 | 13.89° C | 86% | 1015 hPa | 0 mm | 0 m/s | 18 W/m² | - |
| 1777974102 | 13.89° C | 86% | 1015 hPa | 0 mm | 0.89 m/s, 42° | 49 W/m² | - |
| 1777973414 | 13.89° C | 83% | 1015 hPa | 0 mm | 0 m/s | 104 W/m² | - |
| 1777972727 | 13.89° C | 82% | 1015 hPa | 0 mm | 0 m/s | 37 W/m² | - |
| 1777971990 | 13.89° C | 86% | 1015 hPa | 0 mm | 0.89 m/s, 42° | 129 W/m² | - |
| 1777971289 | 13.89° C | 83% | 1015 hPa | 0 mm | 0.89 m/s, 96° | 92 W/m² | - |
| 1777970602 | 13.89° C | 85% | 1014.9 hPa | 0 mm | 0 m/s | 66 W/m² | - |
| 1777969914 | 13.89° C | 83% | 1014.7 hPa | 0 mm | 0 m/s | 40 W/m² | - |
| 1777969227 | 14.44° C | 78% | 1014.7 hPa | 0 mm | 2.24 m/s, 108° | 67 W/m² | - |
| 1777968490 | 15° C | 74% | 1014.5 hPa | 0 mm | 2.68 m/s, 126° | 76 W/m² | - |
| 1777967789 | 16.11° C | 66% | 1014.4 hPa | 0 mm | 1.34 m/s, 130° | 106 W/m² | - |
| 1777967102 | 15.56° C | 66% | 1014.4 hPa | 0 mm | 0 m/s | 206 W/m² | - |
| 1777966415 | 15° C | 75% | 1014.5 hPa | 0 mm | 0.89 m/s, 228° | 139 W/m² | - |
| 1777965727 | 15° C | 73% | 1014.5 hPa | 0 mm | 0.89 m/s, 228° | 107 W/m² | - |
| 1777964990 | 15° C | 70% | 1014.6 hPa | 0 mm | 0.89 m/s, 222° | 80 W/m² | - |
| 1777964290 | 15.56° C | 68% | 1014.6 hPa | 0 mm | 0.89 m/s, 109° | 84 W/m² | - |
| 1777963602 | 15.56° C | 70% | 1014.5 hPa | 0 mm | 0.89 m/s, 108° | 82 W/m² | - |
| 1777962915 | 15.56° C | 68% | 1014.4 hPa | 0 mm | 0.89 m/s, 108° | 102 W/m² | - |
* Rain latest hour (hover to see other rain measurements)
** Current wind speed in m/s (hover to see current wind gust speed)